Time;durP1;ratioP1;P1;durP2;ratioP2;P2;SDS_P1;SDS_P2;PMS_P1;PMS_P2;Temp;Humidity;BMP_temperature;BMP_pressure;BME280_temperature;BME280_humidity;BME280_pressure;Samples;Min_cycle;Max_cycle;Signal;HPM_P1;HPM_P2
2023/05/13 00:02:13;;;;;;;1999.90;999.90;;;;;;;11.14;100.00;97964.03;5030658;28;20437;-75
2023/05/13 00:04:39;;;;;;;1999.90;999.90;;;;;;;11.20;100.00;97975.69;5031295;28;20090;-73
2023/05/13 00:07:04;;;;;;;1999.90;999.90;;;;;;;11.11;100.00;97970.09;5030676;28;20037;-76
2023/05/13 00:09:31;;;;;;;1999.90;999.90;;;;;;;11.08;100.00;97969.88;5030851;28;20029;-74
2023/05/13 00:11:56;;;;;;;1999.90;999.90;;;;;;;11.13;100.00;97975.25;5037798;28;20024;-73
2023/05/13 00:14:21;;;;;;;1999.90;999.90;;;;;;;11.21;100.00;97975.38;5050567;28;20029;-73
2023/05/13 00:16:46;;;;;;;1999.90;999.90;;;;;;;11.17;100.00;97973.56;5038782;28;20030;-74
2023/05/13 00:19:12;;;;;;;1999.90;999.90;;;;;;;11.28;100.00;97975.00;5030705;28;20025;-73
2023/05/13 00:21:37;;;;;;;1999.90;999.90;;;;;;;11.30;100.00;97967.31;5031217;28;20451;-74
2023/05/13 00:24:04;;;;;;;1999.90;999.90;;;;;;;11.32;100.00;97970.56;5031011;28;20483;-74
2023/05/13 00:26:29;;;;;;;1999.90;999.90;;;;;;;11.24;100.00;97974.00;5031078;28;20034;-74
2023/05/13 00:28:54;;;;;;;1999.90;999.90;;;;;;;11.18;100.00;97972.44;5012093;28;20022;-74
2023/05/13 00:31:19;;;;;;;1999.90;999.90;;;;;;;11.17;100.00;97974.38;5036082;28;20034;-73
2023/05/13 00:33:45;;;;;;;1999.90;999.90;;;;;;;11.16;100.00;97972.75;5033957;28;20053;-73
2023/05/13 00:36:11;;;;;;;1999.90;999.90;;;;;;;11.28;100.00;97980.47;5030757;28;20060;-73
2023/05/13 00:38:36;;;;;;;1999.90;999.90;;;;;;;11.22;100.00;97970.72;5030587;28;20389;-73
2023/05/13 00:41:02;;;;;;;1999.90;999.90;;;;;;;11.24;100.00;97980.25;5049701;28;20071;-74
2023/05/13 00:43:28;;;;;;;1999.90;999.90;;;;;;;11.28;100.00;97975.81;5050116;28;20033;-74
2023/05/13 00:45:53;;;;;;;1999.90;999.90;;;;;;;11.33;100.00;97961.25;5050426;28;20064;-74
2023/05/13 00:48:19;;;;;;;1999.90;999.90;;;;;;;11.29;100.00;97982.94;5050342;28;20113;-73
2023/05/13 00:50:44;;;;;;;1999.90;999.90;;;;;;;11.29;100.00;97971.16;5050341;28;20025;-73
2023/05/13 00:53:11;;;;;;;1999.90;999.90;;;;;;;11.34;100.00;97973.00;5047357;28;20788;-73
2023/05/13 00:55:43;;;;;;;1999.90;999.90;;;;;;;11.37;100.00;97975.94;5038339;28;20397;-73
2023/05/13 00:58:10;;;;;;;1999.90;999.90;;;;;;;11.29;100.00;97971.16;5049770;28;20466;-73
2023/05/13 01:00:43;;;;;;;1999.90;999.90;;;;;;;11.39;100.00;97978.41;5033922;28;20030;-73
2023/05/13 01:03:20;;;;;;;1999.90;999.90;;;;;;;11.44;100.00;97978.28;5029820;28;20037;-73
2023/05/13 01:06:15;;;;;;;1999.90;999.90;;;;;;;11.49;100.00;97970.81;5030330;28;20033;-73
2023/05/13 01:08:55;;;;;;;1999.90;999.90;;;;;;;11.42;100.00;97980.53;5029632;28;20034;-72
2023/05/13 01:11:30;;;;;;;1999.90;999.90;;;;;;;11.35;100.00;97974.63;5033480;28;20036;-73
2023/05/13 01:14:08;;;;;;;1999.90;999.90;;;;;;;11.35;100.00;97985.56;5049604;28;20021;-73
2023/05/13 01:16:39;;;;;;;1999.90;999.90;;;;;;;11.41;100.00;97985.19;5049723;28;20032;-74
2023/05/13 01:19:45;;;;;;;1999.90;999.90;;;;;;;11.42;100.00;97983.28;5050560;28;20504;-73
2023/05/13 01:22:11;;;;;;;1999.90;999.90;;;;;;;11.37;100.00;97981.41;5049740;28;20178;-73
2023/05/13 01:24:38;;;;;;;1999.90;999.90;;;;;;;11.43;100.00;97976.69;5049931;28;20501;-73
2023/05/13 01:27:04;;;;;;;1999.90;999.90;;;;;;;11.42;100.00;97978.59;5049730;28;20028;-73
2023/05/13 01:29:31;;;;;;;1999.90;999.90;;;;;;;11.36;100.00;97988.03;5049515;28;20074;-73
2023/05/13 01:31:58;;;;;;;1999.90;999.90;;;;;;;11.20;100.00;97978.44;5049569;28;20031;-73
2023/05/13 01:34:24;;;;;;;1999.90;999.90;;;;;;;11.34;100.00;97992.97;5049916;28;20061;-73
2023/05/13 01:36:50;;;;;;;1999.90;999.90;;;;;;;11.28;100.00;97989.50;5049719;28;20060;-73
2023/05/13 01:39:18;;;;;;;1999.90;999.90;;;;;;;11.21;100.00;97993.75;5045462;28;20494;-73
2023/05/13 01:41:43;;;;;;;1999.90;999.90;;;;;;;11.14;100.00;97985.09;5033043;28;20033;-73
2023/05/13 01:44:09;;;;;;;1999.90;999.90;;;;;;;11.21;100.00;97991.03;5033237;28;20543;-73
2023/05/13 01:46:34;;;;;;;1999.90;999.90;;;;;;;11.36;100.00;97998.97;5033241;28;20044;-73
2023/05/13 01:48:59;;;;;;;1999.90;999.90;;;;;;;11.27;100.00;97973.41;5019863;28;20022;-73
2023/05/13 01:51:25;;;;;;;1999.90;999.90;;;;;;;11.25;100.00;97983.81;5013105;28;20030;-73
2023/05/13 01:53:50;;;;;;;1999.90;999.90;;;;;;;11.18;100.00;97981.47;5012966;28;20076;-73
2023/05/13 01:56:15;;;;;;;1999.90;999.90;;;;;;;11.07;100.00;97979.19;5012934;28;20069;-73
2023/05/13 01:58:41;;;;;;;1999.90;999.90;;;;;;;11.08;100.00;97967.97;5013005;28;20022;-73
2023/05/13 02:01:06;;;;;;;1999.90;999.90;;;;;;;11.15;100.00;97975.78;5012782;28;20030;-73
2023/05/13 02:03:32;;;;;;;1999.90;999.90;;;;;;;11.26;100.00;97974.50;5026113;28;20029;-73
2023/05/13 02:05:57;;;;;;;1999.90;999.90;;;;;;;11.27;100.00;97978.88;5033278;28;20033;-73
2023/05/13 02:08:24;;;;;;;1999.90;999.90;;;;;;;11.36;100.00;97974.34;5032642;28;20099;-73
2023/05/13 02:10:59;;;;;;;1999.90;999.90;;;;;;;11.40;100.00;97963.59;5032438;28;20029;-73
2023/05/13 02:13:25;;;;;;;1999.90;999.90;;;;;;;11.41;100.00;97971.50;5032545;28;20528;-73
2023/05/13 02:15:51;;;;;;;1999.90;999.90;;;;;;;11.31;100.00;97985.34;5032684;28;20088;-73
2023/05/13 02:18:17;;;;;;;1999.90;999.90;;;;;;;11.30;100.00;97978.28;5032207;28;20048;-73
2023/05/13 02:20:43;;;;;;;1999.90;999.90;;;;;;;11.31;100.00;97971.66;5032371;28;20072;-73
2023/05/13 02:23:08;;;;;;;1999.90;999.90;;;;;;;11.23;100.00;97956.75;5032267;28;20032;-72
2023/05/13 02:25:33;;;;;;;1999.90;999.90;;;;;;;11.41;100.00;97982.44;5032203;28;20488;-73
2023/05/13 02:27:59;;;;;;;1999.90;999.90;;;;;;;11.27;100.00;97976.94;5032268;28;20545;-73
2023/05/13 02:30:25;;;;;;;1999.90;999.90;;;;;;;11.24;100.00;97984.94;5032115;28;20084;-72
2023/05/13 02:32:52;;;;;;;1999.90;999.90;;;;;;;11.13;100.00;97970.59;5031941;28;20371;-73
2023/05/13 02:35:17;;;;;;;1999.90;999.90;;;;;;;11.24;100.00;97983.00;5032657;28;20061;-72
2023/05/13 02:37:43;;;;;;;1999.90;999.90;;;;;;;11.17;100.00;97981.78;5032392;28;20060;-72
2023/05/13 02:40:09;;;;;;;1999.90;999.90;;;;;;;11.22;100.00;97984.41;5051300;28;20091;-73
2023/05/13 02:42:34;;;;;;;1999.90;999.90;;;;;;;11.10;100.00;97973.94;5036101;28;20037;-73
2023/05/13 02:45:00;;;;;;;1999.90;999.90;;;;;;;11.10;100.00;97970.38;5040116;28;20116;-72
2023/05/13 02:47:26;;;;;;;1999.90;999.90;;;;;;;11.09;100.00;97976.94;5032091;28;20108;-73
2023/05/13 02:49:53;;;;;;;1999.90;999.90;;;;;;;11.11;100.00;97980.22;5032089;28;20375;-73
2023/05/13 02:52:19;;;;;;;1999.90;999.90;;;;;;;11.08;100.00;97981.66;5031204;28;20037;-73
2023/05/13 02:54:44;;;;;;;1999.90;999.90;;;;;;;11.02;100.00;97979.28;5031890;28;20402;-73
2023/05/13 02:57:10;;;;;;;1999.90;999.90;;;;;;;10.91;100.00;97975.88;5032341;28;20033;-73
2023/05/13 02:59:35;;;;;;;1999.90;999.90;;;;;;;10.91;100.00;97975.88;5031040;28;20106;-73
2023/05/13 03:02:00;;;;;;;1999.90;999.90;;;;;;;10.94;100.00;97974.47;5031221;28;20470;-73
2023/05/13 03:04:25;;;;;;;1999.90;999.90;;;;;;;10.95;100.00;97981.56;5031870;28;20033;-73
2023/05/13 03:06:51;;;;;;;1999.90;999.90;;;;;;;10.92;100.00;97977.50;5031731;28;20064;-73
2023/05/13 03:09:17;;;;;;;1999.90;999.90;;;;;;;10.86;100.00;97977.88;5031765;28;20022;-73
2023/05/13 03:11:42;;;;;;;1999.90;999.90;;;;;;;10.86;100.00;97991.56;5031675;28;20041;-73
2023/05/13 03:14:07;;;;;;;1999.90;999.90;;;;;;;10.83;100.00;97978.47;5031221;28;20439;-75
2023/05/13 03:16:33;;;;;;;1999.90;999.90;;;;;;;10.84;100.00;97985.59;5013835;28;20406;-74
2023/05/13 03:18:58;;;;;;;1999.90;999.90;;;;;;;10.81;100.00;97988.91;5031470;28;20108;-74
2023/05/13 03:21:25;;;;;;;1999.90;999.90;;;;;;;10.77;100.00;97985.13;5031180;28;20037;-74
2023/05/13 03:23:50;;;;;;;1999.90;999.90;;;;;;;10.82;100.00;97988.59;5031209;28;20037;-73
2023/05/13 03:26:15;;;;;;;1999.90;999.90;;;;;;;10.79;100.00;97980.16;5030969;28;20025;-73
2023/05/13 03:28:41;;;;;;;1999.90;999.90;;;;;;;10.79;100.00;97980.16;5013410;28;20026;-72
2023/05/13 03:31:06;;;;;;;1999.90;999.90;;;;;;;10.74;100.00;97981.84;5031359;28;20067;-73
2023/05/13 03:33:31;;;;;;;1999.90;999.90;;;;;;;10.70;100.00;97978.09;5031497;28;20035;-73
2023/05/13 03:35:57;;;;;;;1999.90;999.90;;;;;;;10.77;100.00;97985.94;5031739;28;20112;-73
2023/05/13 03:38:22;;;;;;;1999.90;999.90;;;;;;;10.81;100.00;97988.91;5031000;28;20394;-73
2023/05/13 03:40:47;;;;;;;1999.90;999.90;;;;;;;10.68;100.00;97988.50;5031117;28;20045;-73
2023/05/13 03:43:12;;;;;;;1999.90;999.90;;;;;;;10.59;100.00;97960.19;5031115;28;20041;-73
2023/05/13 03:45:38;;;;;;;1999.90;999.90;;;;;;;10.50;100.00;97991.22;5031344;28;20076;-73
2023/05/13 03:48:03;;;;;;;1999.90;999.90;;;;;;;10.48;100.00;97988.00;5031530;28;20036;-73
2023/05/13 03:50:29;;;;;;;1999.90;999.90;;;;;;;10.48;100.00;97990.72;5031208;28;20470;-73
2023/05/13 03:52:55;;;;;;;1999.90;999.90;;;;;;;10.49;100.00;97982.25;5031245;28;20048;-73
2023/05/13 03:55:20;;;;;;;1999.90;999.90;;;;;;;10.60;100.00;97991.91;5031139;28;20489;-73
2023/05/13 03:57:47;;;;;;;1999.90;999.90;;;;;;;10.68;100.00;97993.97;5013817;28;20030;-73
2023/05/13 04:00:14;;;;;;;1999.90;999.90;;;;;;;10.68;100.00;97974.03;5031161;28;20033;-73
2023/05/13 04:02:39;;;;;;;1999.90;999.90;;;;;;;10.80;100.00;97995.47;5012951;28;20045;-73
2023/05/13 04:05:05;;;;;;;1999.90;999.90;;;;;;;10.79;100.00;97977.44;5031221;28;20525;-73
2023/05/13 04:07:30;;;;;;;1999.90;999.90;;;;;;;10.90;100.00;97978.91;5031579;28;20437;-73
2023/05/13 04:09:56;;;;;;;1999.90;999.90;;;;;;;10.95;100.00;97990.59;5030957;28;20462;-73
2023/05/13 04:12:21;;;;;;;1999.90;999.90;;;;;;;10.87;100.00;97988.50;5030976;28;20148;-73
2023/05/13 04:14:46;;;;;;;1999.90;999.90;;;;;;;10.98;100.00;97994.66;5030969;28;20026;-73
2023/05/13 04:17:11;;;;;;;1999.90;999.90;;;;;;;11.04;100.00;97988.00;5031115;28;20116;-74
2023/05/13 04:19:37;;;;;;;1999.90;999.90;;;;;;;11.01;100.00;97986.66;5030905;28;20394;-73
2023/05/13 04:22:02;;;;;;;1999.90;999.90;;;;;;;10.97;100.00;97996.56;5030830;28;20033;-74
2023/05/13 04:24:27;;;;;;;1999.90;999.90;;;;;;;10.99;100.00;98004.50;5030133;28;20065;-73
2023/05/13 04:26:53;;;;;;;1999.90;999.90;;;;;;;11.07;100.00;98006.56;5030810;28;20022;-73
2023/05/13 04:29:18;;;;;;;1999.90;999.90;;;;;;;11.19;100.00;98006.91;5030598;28;20021;-73
2023/05/13 04:31:44;;;;;;;1999.90;999.90;;;;;;;11.22;100.00;98018.09;5030671;28;20023;-73
2023/05/13 04:34:09;;;;;;;1999.90;999.90;;;;;;;11.26;100.00;98015.56;5030625;28;20028;-73
2023/05/13 04:36:35;;;;;;;1999.90;999.90;;;;;;;11.10;100.00;98015.00;5031346;28;20029;-73
2023/05/13 04:39:00;;;;;;;1999.90;999.90;;;;;;;11.04;100.00;98018.91;5032744;28;20549;-72
2023/05/13 04:41:25;;;;;;;1999.90;999.90;;;;;;;11.21;100.00;98029.34;5050400;28;20028;-73
2023/05/13 04:43:51;;;;;;;1999.90;999.90;;;;;;;11.06;100.00;98022.16;5050274;28;20025;-73
2023/05/13 04:46:16;;;;;;;1999.90;999.90;;;;;;;11.24;100.00;98032.28;5052530;28;20061;-74
2023/05/13 04:48:41;;;;;;;1999.90;999.90;;;;;;;11.39;100.00;98030.44;5058515;28;20033;-74
2023/05/13 04:51:07;;;;;;;1999.90;999.90;;;;;;;11.38;100.00;98035.09;5032928;28;20029;-73
2023/05/13 04:53:32;;;;;;;1999.90;999.90;;;;;;;11.40;100.00;98043.03;5050288;28;20029;-73
2023/05/13 04:55:59;;;;;;;1999.90;999.90;;;;;;;11.50;100.00;98051.06;5050060;28;20025;-75
2023/05/13 04:58:26;;;;;;;1999.90;999.90;;;;;;;11.48;100.00;98045.88;5050134;28;20037;-75
2023/05/13 05:00:52;;;;;;;1999.90;999.90;;;;;;;11.55;100.00;98045.50;5050084;28;20056;-73
2023/05/13 05:03:17;;;;;;;1999.90;999.90;;;;;;;11.61;100.00;98047.88;5049821;28;20517;-73
2023/05/13 05:05:42;;;;;;;1999.90;999.90;;;;;;;11.62;100.00;98056.91;5027294;28;20501;-73
2023/05/13 05:08:08;;;;;;;1999.90;999.90;;;;;;;11.63;100.00;98058.50;5025257;28;20470;-73
2023/05/13 05:10:33;;;;;;;1999.90;999.90;;;;;;;11.68;100.00;98058.44;5027877;28;20060;-73
2023/05/13 05:12:58;;;;;;;1999.90;999.90;;;;;;;11.76;100.00;98058.59;5009763;28;20100;-73
2023/05/13 05:15:24;;;;;;;1999.90;999.90;;;;;;;11.87;100.00;98059.25;5012569;28;20026;-73
2023/05/13 05:17:49;;;;;;;1999.90;999.90;;;;;;;12.17;100.00;98069.66;5013647;28;20028;-73
2023/05/13 05:20:15;;;;;;;1999.90;999.90;;;;;;;12.46;100.00;98063.06;5013787;28;20037;-74
2023/05/13 05:22:41;;;;;;;1999.90;999.90;;;;;;;12.73;100.00;98076.78;5014471;28;20549;-73
2023/05/13 05:25:07;;;;;;;1999.90;999.90;;;;;;;13.05;100.00;98075.81;5033743;28;20037;-73
2023/05/13 05:27:33;;;;;;;1999.90;999.90;;;;;;;13.50;100.00;98063.78;5033355;28;20052;-74
2023/05/13 05:29:58;;;;;;;1999.90;999.90;;;;;;;13.75;100.00;98078.88;5033169;28;20076;-73
2023/05/13 05:32:23;;;;;;;1999.90;999.90;;;;;;;14.11;100.00;98079.59;5032919;28;20079;-72
2023/05/13 05:34:49;;;;;;;1999.90;999.90;;;;;;;14.27;100.00;98082.75;5033116;28;20045;-73
2023/05/13 05:37:14;;;;;;;1999.90;999.90;;;;;;;14.13;100.00;98098.50;5033462;28;20036;-73
2023/05/13 05:39:40;;;;;;;1999.90;999.90;;;;;;;14.09;100.00;98079.09;5033199;28;20053;-73
2023/05/13 05:42:06;;;;;;;1999.90;999.90;;;;;;;14.23;100.00;98077.06;5033146;28;20025;-73
2023/05/13 05:44:32;;;;;;;1999.90;999.90;;;;;;;14.49;100.00;98074.47;5032937;28;20104;-73
2023/05/13 05:46:57;;;;;;;1999.90;999.90;;;;;;;14.47;100.00;98079.50;5033095;28;20112;-73
2023/05/13 05:49:22;;;;;;;1999.90;999.90;;;;;;;14.56;100.00;98080.34;5032814;28;20036;-73
2023/05/13 05:51:48;;;;;;;1999.90;999.90;;;;;;;14.45;100.00;98078.97;5032796;28;20120;-72
2023/05/13 05:54:13;;;;;;;1999.90;999.90;;;;;;;14.71;100.00;98088.16;5032879;28;20026;-73
2023/05/13 05:56:38;;;;;;;1999.90;999.90;;;;;;;15.00;100.00;98090.34;5033142;28;20538;-73
2023/05/13 05:59:04;;;;;;;1999.90;999.90;;;;;;;14.95;100.00;98091.31;5033863;28;20533;-73
2023/05/13 06:01:35;;;;;;;1999.90;999.90;;;;;;;14.87;100.00;98096.78;5013066;28;20022;-73
2023/05/13 06:04:04;;;;;;;1999.90;999.90;;;;;;;14.22;100.00;98096.66;5012885;28;20116;-73
2023/05/13 06:06:29;;;;;;;1999.90;999.90;;;;;;;14.11;100.00;98089.78;5013027;28;20033;-72
2023/05/13 06:08:54;;;;;;;1999.90;999.90;;;;;;;14.23;100.00;98088.06;5013177;28;20048;-70
2023/05/13 06:11:20;;;;;;;1999.90;999.90;;;;;;;14.28;100.00;98084.38;5012917;28;20506;-71
2023/05/13 06:13:45;;;;;;;1999.90;999.90;;;;;;;14.19;100.00;98091.78;5013774;28;20041;-71
2023/05/13 06:16:11;;;;;;;1999.90;999.90;;;;;;;14.19;100.00;98087.06;5021253;28;20426;-71
2023/05/13 06:18:36;;;;;;;1999.90;999.90;;;;;;;14.12;100.00;98102.41;5032456;28;20017;-72
2023/05/13 06:21:02;;;;;;;1999.90;999.90;;;;;;;14.00;100.00;98099.44;5002135;28;20115;-71
2023/05/13 06:23:27;;;;;;;1999.90;999.90;;;;;;;13.67;100.00;98102.41;5012484;28;20466;-71
2023/05/13 06:25:53;;;;;;;1999.90;999.90;;;;;;;13.59;100.00;98094.94;5011075;28;20033;-71
2023/05/13 06:28:20;;;;;;;1999.90;999.90;;;;;;;13.90;100.00;98097.75;5012872;28;20041;-70
2023/05/13 06:30:45;;;;;;;1999.90;999.90;;;;;;;14.34;100.00;98092.22;5013177;28;20022;-71
2023/05/13 06:33:11;;;;;;;1999.90;999.90;;;;;;;14.54;100.00;98099.09;5024578;28;20036;-70
2023/05/13 06:35:37;;;;;;;1999.90;999.90;;;;;;;14.99;100.00;98106.06;5031917;28;20079;-70
2023/05/13 06:38:02;;;;;;;1999.90;999.90;;;;;;;15.24;100.00;98104.50;5032367;28;20546;-71
2023/05/13 06:40:27;;;;;;;1999.90;999.90;;;;;;;15.45;100.00;98104.66;5014092;28;20081;-71
2023/05/13 06:42:53;;;;;;;1999.90;999.90;;;;;;;15.71;100.00;98100.03;5032474;28;20453;-71
2023/05/13 06:45:22;;;;;;;1999.90;999.90;;;;;;;15.88;100.00;98105.50;5032080;28;20417;-71
2023/05/13 06:47:51;;;;;;;1999.90;999.90;;;;;;;16.13;100.00;98100.31;5032034;28;20037;-72
2023/05/13 06:50:17;;;;;;;1999.90;999.90;;;;;;;15.43;100.00;98102.25;5031720;28;20486;-71
2023/05/13 06:52:42;;;;;;;1999.90;999.90;;;;;;;15.13;100.00;98094.09;5032868;28;20114;-73
2023/05/13 06:55:09;;;;;;;1999.90;999.90;;;;;;;15.54;100.00;98097.25;5035763;28;20040;-72
2023/05/13 06:57:34;;;;;;;1999.90;999.90;;;;;;;15.43;100.00;98098.69;5035820;28;20477;-71
2023/05/13 07:00:00;;;;;;;1999.90;999.90;;;;;;;15.06;100.00;98088.25;5033348;28;20116;-72
2023/05/13 07:02:25;;;;;;;1999.90;999.90;;;;;;;14.81;100.00;98098.06;5031348;28;20073;-71
2023/05/13 07:04:51;;;;;;;1999.90;999.90;;;;;;;14.40;100.00;98093.72;5031575;28;20030;-73
2023/05/13 07:07:17;;;;;;;1999.90;999.90;;;;;;;14.18;100.00;98095.66;5031651;28;20308;-71
2023/05/13 07:09:42;;;;;;;1999.90;999.90;;;;;;;14.02;100.00;98097.16;5013847;28;20410;-72
2023/05/13 07:12:10;;;;;;;1999.90;999.90;;;;;;;14.03;100.00;98096.06;5031459;28;20022;-72
2023/05/13 07:14:35;;;;;;;1999.90;999.90;;;;;;;14.01;100.00;98101.03;5031195;28;20065;-72
2023/05/13 07:17:01;;;;;;;1999.90;999.90;;;;;;;14.13;100.00;98090.25;5031344;28;20056;-71
2023/05/13 07:19:26;;;;;;;1999.90;999.90;;;;;;;14.40;100.00;98090.13;5031078;28;20059;-71
2023/05/13 07:21:51;;;;;;;1999.90;999.90;;;;;;;14.90;100.00;98094.22;5031192;28;20037;-71
2023/05/13 07:24:17;;;;;;;1999.90;999.90;;;;;;;14.52;100.00;98092.28;5031245;28;20025;-71
2023/05/13 07:26:42;;;;;;;1999.90;999.90;;;;;;;14.71;100.00;98095.59;5021738;28;20030;-72
2023/05/13 07:29:07;;;;;;;1999.90;999.90;;;;;;;14.01;100.00;98106.53;5029776;28;20033;-72
2023/05/13 07:31:33;;;;;;;1999.90;999.90;;;;;;;13.89;100.00;98101.63;5030285;28;20033;-72
2023/05/13 07:33:58;;;;;;;1999.90;999.90;;;;;;;13.86;100.00;98105.81;5018724;28;20026;-74
2023/05/13 07:36:24;;;;;;;1999.90;999.90;;;;;;;13.88;100.00;98098.03;5018622;28;20026;-72
2023/05/13 07:38:49;;;;;;;1999.90;999.90;;;;;;;13.97;100.00;98100.06;5029746;28;20018;-72
2023/05/13 07:41:15;;;;;;;1999.90;999.90;;;;;;;13.79;100.00;98102.66;5019760;28;20569;-71
2023/05/13 07:43:40;;;;;;;1999.90;999.90;;;;;;;14.33;100.00;98103.53;5019553;28;20034;-72
2023/05/13 07:46:05;;;;;;;1999.90;999.90;;;;;;;14.65;100.00;98094.13;5025972;28;20032;-74
2023/05/13 07:48:32;;;;;;;1999.90;999.90;;;;;;;14.38;100.00;98095.13;5029297;28;20084;-71
2023/05/13 07:50:57;;;;;;;1999.90;999.90;;;;;;;14.61;100.00;98093.94;5018570;28;20050;-71
2023/05/13 07:53:23;;;;;;;1999.90;999.90;;;;;;;14.29;100.00;98097.00;5030000;28;20017;-72
2023/05/13 07:55:48;;;;;;;1999.90;999.90;;;;;;;13.86;100.00;98102.25;5026140;28;20108;-71
2023/05/13 07:58:14;;;;;;;1999.90;999.90;;;;;;;14.26;100.00;98090.19;5029562;28;20099;-71
2023/05/13 08:00:39;;;;;;;1999.90;999.90;;;;;;;13.62;100.00;98105.31;5029854;28;20021;-71
2023/05/13 08:03:05;;;;;;;1999.90;999.90;;;;;;;13.75;100.00;98093.41;5030517;28;20040;-71
2023/05/13 08:05:30;;;;;;;1999.90;999.90;;;;;;;13.29;100.00;98092.88;5029886;28;20120;-73
2023/05/13 08:07:55;;;;;;;1999.90;999.90;;;;;;;13.18;100.00;98092.31;5030832;28;20095;-75
2023/05/13 08:10:20;;;;;;;1999.90;999.90;;;;;;;13.12;100.00;98088.06;5012920;28;20095;-74
2023/05/13 08:12:50;;;;;;;1999.90;999.90;;;;;;;13.38;100.00;98100.06;5030460;28;20034;-73
2023/05/13 08:15:18;;;;;;;1999.90;999.90;;;;;;;13.51;100.00;98090.16;5030638;28;20086;-73
2023/05/13 08:17:43;;;;;;;1999.90;999.90;;;;;;;14.02;100.00;98088.91;5030152;28;20083;-73
2023/05/13 08:20:10;;;;;;;1999.90;999.90;;;;;;;13.78;100.00;98097.50;5030547;28;20030;-73
2023/05/13 08:22:35;;;;;;;1999.90;999.90;;;;;;;13.90;100.00;98098.56;5030148;28;20037;-74
2023/05/13 08:25:02;;;;;;;1999.90;999.90;;;;;;;13.99;100.00;98100.53;5030288;28;20033;-73
2023/05/13 08:27:27;;;;;;;1999.90;999.90;;;;;;;14.02;100.00;98102.66;5030059;28;20059;-73
2023/05/13 08:29:52;;;;;;;1999.90;999.90;;;;;;;14.25;100.00;98096.03;5030004;28;20017;-74
2023/05/13 08:32:18;;;;;;;1999.90;999.90;;;;;;;14.18;100.00;98107.47;5030043;28;20465;-73
2023/05/13 08:34:43;;;;;;;1999.90;999.90;;;;;;;14.08;100.00;98102.22;5030451;28;20451;-73
2023/05/13 08:37:08;;;;;;;1999.90;999.90;;;;;;;14.00;100.00;98104.94;5030214;28;20040;-73
2023/05/13 08:39:34;;;;;;;1999.90;999.90;;;;;;;14.03;100.00;98101.56;5033228;28;20044;-73
2023/05/13 08:42:02;;;;;;;1999.90;999.90;;;;;;;13.98;100.00;98101.66;5028752;28;20112;-74
2023/05/13 08:44:29;;;;;;;1999.90;999.90;;;;;;;14.07;100.00;98105.28;5029764;28;20037;-74
2023/05/13 08:47:05;;;;;;;1999.90;999.90;;;;;;;13.81;100.00;98108.66;5029827;28;20025;-74
2023/05/13 08:49:31;;;;;;;;;;;;;;;13.97;100.00;98111.06;5029775;28;20506;-74
2023/05/13 08:51:56;;;;;;;1999.90;999.90;;;;;;;14.00;100.00;98107.69;5034519;28;20003;-75
2023/05/13 08:54:23;;;;;;;1999.90;999.90;;;;;;;14.25;100.00;98107.03;5050287;28;20116;-74
2023/05/13 08:56:48;;;;;;;1999.90;999.90;;;;;;;14.26;100.00;98103.13;5050674;28;20120;-74
2023/05/13 08:59:14;;;;;;;1999.90;999.90;;;;;;;14.25;100.00;98107.03;5051172;28;20580;-75
2023/05/13 09:01:39;;;;;;;1999.90;999.90;;;;;;;14.55;100.00;98106.22;5051772;28;20029;-74
2023/05/13 09:04:07;;;;;;;1999.90;999.90;;;;;;;14.51;100.00;98102.47;5053902;28;20497;-74
2023/05/13 09:06:32;;;;;;;1999.90;999.90;;;;;;;14.55;100.00;98102.66;5050173;28;20036;-74
2023/05/13 09:08:58;;;;;;;1999.90;999.90;;;;;;;14.77;100.00;98099.84;5032370;28;20032;-74
2023/05/13 09:11:25;;;;;;;1999.90;999.90;;;;;;;14.82;100.00;98110.69;5017103;28;20030;-73
2023/05/13 09:14:01;;;;;;;1999.90;999.90;;;;;;;15.06;100.00;98111.09;5030364;28;20056;-75
2023/05/13 09:16:28;;;;;;;1999.90;999.90;;;;;;;15.03;100.00;98109.00;5029385;28;20034;-74
2023/05/13 09:18:58;;;;;;;1999.90;999.90;;;;;;;15.24;100.00;98118.28;5029398;28;20040;-74
2023/05/13 09:21:26;;;;;;;1999.90;999.90;;;;;;;15.18;100.00;98113.22;5028440;28;20029;-72
2023/05/13 09:24:21;;;;;;;1999.90;999.90;;;;;;;15.21;100.00;98120.84;5026652;28;20029;-73
2023/05/13 09:26:48;;;;;;;1999.90;999.90;;;;;;;15.36;100.00;98106.59;5023801;28;20069;-71
2023/05/13 09:29:21;;;;;;;1999.90;999.90;;;;;;;15.55;100.00;98118.19;5026194;28;20042;-73
2023/05/13 09:31:54;;;;;;;1999.90;999.90;;;;;;;15.70;100.00;98114.94;5029094;28;20037;-73
2023/05/13 09:34:24;;;;;;;1999.90;999.90;;;;;;;15.66;100.00;98113.16;5028352;28;20540;-74
2023/05/13 09:36:54;;;;;;;1999.90;999.90;;;;;;;15.21;100.00;98107.06;5028818;28;20026;-73
2023/05/13 09:39:20;;;;;;;1999.90;999.90;;;;;;;15.70;100.00;98100.31;5034325;28;20041;-73
2023/05/13 09:41:45;;;;;;;1999.90;999.90;;;;;;;16.02;100.00;98100.63;5015774;28;20390;-74
2023/05/13 09:44:12;;;;;;;1999.90;999.90;;;;;;;15.99;100.00;98106.00;5036183;28;20037;-74
2023/05/13 09:46:37;;;;;;;1999.90;999.90;;;;;;;16.08;100.00;98099.31;5027824;28;20041;-74
2023/05/13 09:49:03;;;;;;;1999.90;999.90;;;;;;;15.87;100.00;98087.34;5022899;28;20034;-74
2023/05/13 09:51:31;;;;;;;1999.90;999.90;;;;;;;15.57;100.00;98088.31;5041726;28;20033;-74
2023/05/13 09:54:03;;;;;;;1999.90;999.90;;;;;;;15.60;100.00;98092.41;5022970;28;21186;-74
2023/05/13 09:56:31;;;;;;;1999.90;999.90;;;;;;;15.38;100.00;98093.34;5020404;28;20483;-73
2023/05/13 09:58:56;;;;;;;1999.90;999.90;;;;;;;15.38;100.00;98096.09;5032512;28;20025;-76
2023/05/13 10:01:22;;;;;;;1999.90;999.90;;;;;;;15.32;100.00;98091.84;5020269;28;20483;-76
2023/05/13 10:03:48;;;;;;;1999.90;999.90;;;;;;;15.35;100.00;98093.94;5044547;28;20536;-74
2023/05/13 10:06:16;;;;;;;1999.90;999.90;;;;;;;15.00;100.00;98093.91;5012347;28;20022;-75
2023/05/13 10:08:46;;;;;;;1999.90;999.90;;;;;;;14.79;100.00;98090.13;5023913;28;20040;-74
2023/05/13 10:11:14;;;;;;;1999.90;999.90;;;;;;;14.86;100.00;98093.22;5028488;28;20017;-73
2023/05/13 10:13:39;;;;;;;1999.90;999.90;;;;;;;14.76;100.00;98095.44;5015965;28;20073;-73
2023/05/13 10:16:06;;;;;;;1999.90;999.90;;;;;;;14.67;100.00;98092.66;5027389;28;20050;-72
2023/05/13 10:18:32;;;;;;;1999.90;999.90;;;;;;;14.17;100.00;98110.53;5034358;28;20053;-72
2023/05/13 10:20:58;;;;;;;1999.90;999.90;;;;;;;14.31;100.00;98105.75;5036715;28;20086;-72
2023/05/13 10:23:23;;;;;;;1999.90;999.90;;;;;;;14.39;100.00;98102.25;5036888;28;20033;-74
2023/05/13 10:25:49;;;;;;;1999.90;999.90;;;;;;;14.15;100.00;98102.59;5018537;28;20474;-73
2023/05/13 10:28:15;;;;;;;1999.90;999.90;;;;;;;14.00;100.00;98105.75;5034548;28;20508;-74
2023/05/13 10:30:42;;;;;;;1999.90;999.90;;;;;;;14.30;100.00;98109.63;5031832;28;20026;-73
2023/05/13 10:33:08;;;;;;;1999.90;999.90;;;;;;;14.69;100.00;98106.13;5038454;28;20033;-73
2023/05/13 10:35:37;;;;;;;1999.90;999.90;;;;;;;14.86;100.00;98104.25;5018239;28;20504;-73
2023/05/13 10:38:15;;;;;;;1999.90;999.90;;;;;;;14.72;100.00;98100.78;5042457;28;20165;-73
2023/05/13 10:40:44;;;;;;;1999.90;999.90;;;;;;;14.11;100.00;98112.59;5044843;28;20040;-73
2023/05/13 10:43:19;;;;;;;1999.90;999.90;;;;;;;13.71;100.00;98103.44;5050863;28;20033;-74
2023/05/13 10:45:49;;;;;;;1999.90;999.90;;;;;;;13.37;100.00;98092.94;5048309;28;20466;-74